Time;durP1;ratioP1;P1;durP2;ratioP2;P2;SDS_P1;SDS_P2;PMS_P1;PMS_P2;Temp;Humidity;BMP_temperature;BMP_pressure;BME280_temperature;BME280_humidity;BME280_pressure;Samples;Min_cycle;Max_cycle;Signal;HPM_P1;HPM_P2
2021/03/15 00:02:07;;;;;;;5.88;4.03;;;4.00;99.90;;;;;;4902152;29;20032;-88
2021/03/15 00:04:32;;;;;;;6.53;3.35;;;3.90;99.90;;;;;;4902165;29;20028;-87
2021/03/15 00:06:58;;;;;;;6.60;3.50;;;3.90;99.90;;;;;;4902056;29;20091;-87
2021/03/15 00:09:24;;;;;;;5.38;3.22;;;3.90;99.90;;;;;;4919320;29;20060;-88
2021/03/15 00:11:50;;;;;;;6.53;2.80;;;3.90;99.90;;;;;;4919026;29;20058;-88
2021/03/15 00:14:16;;;;;;;5.75;3.45;;;3.90;99.90;;;;;;4902019;29;20035;-88
2021/03/15 00:16:41;;;;;;;9.18;3.72;;;3.90;99.90;;;;;;4918847;29;20572;-88
2021/03/15 00:19:07;;;;;;;7.15;3.20;;;3.80;99.90;;;;;;4901976;29;20028;-88
2021/03/15 00:21:33;;;;;;;7.72;3.00;;;3.80;99.90;;;;;;4902021;29;20028;-88
2021/03/15 00:23:58;;;;;;;5.85;2.80;;;3.70;99.90;;;;;;4919356;29;20020;-88
2021/03/15 00:26:24;;;;;;;5.97;3.22;;;3.80;99.90;;;;;;4901781;29;20629;-88
2021/03/15 00:28:49;;;;;;;5.25;2.90;;;3.90;99.90;;;;;;4901722;29;20028;-88
2021/03/15 00:31:15;;;;;;;3.60;2.40;;;3.80;99.90;;;;;;4901613;29;20051;-88
2021/03/15 00:33:41;;;;;;;4.15;2.70;;;3.90;99.90;;;;;;4901687;29;20150;-88
2021/03/15 00:36:07;;;;;;;5.22;2.60;;;4.00;99.90;;;;;;4901572;29;20031;-88
2021/03/15 00:38:34;;;;;;;6.35;2.78;;;3.90;99.90;;;;;;4918780;29;20028;-88
2021/03/15 00:40:59;;;;;;;3.55;2.17;;;4.00;99.90;;;;;;4918548;29;20028;-88
2021/03/15 00:43:25;;;;;;;4.93;2.47;;;4.00;99.90;;;;;;4918761;29;20027;-88
2021/03/15 00:45:51;;;;;;;4.57;2.17;;;3.90;99.90;;;;;;4918384;29;20108;-87
2021/03/15 00:48:16;;;;;;;6.00;2.85;;;4.00;99.90;;;;;;4901336;29;20024;-88
2021/03/15 00:50:42;;;;;;;4.00;2.45;;;4.00;99.90;;;;;;4901253;29;20039;-88
2021/03/15 00:53:12;;;;;;;4.95;2.42;;;3.90;99.90;;;;;;4901072;29;20024;-87
2021/03/15 00:55:39;;;;;;;7.03;2.88;;;3.90;99.90;;;;;;4918184;29;20425;-88
2021/03/15 00:58:05;;;;;;;7.50;2.80;;;3.90;99.90;;;;;;4900951;29;20020;-87
2021/03/15 01:00:36;;;;;;;6.13;2.30;;;3.80;99.90;;;;;;4901248;29;20389;-88
2021/03/15 01:03:03;;;;;;;3.85;2.22;;;3.80;99.90;;;;;;4918090;29;20147;-88
2021/03/15 01:05:58;;;;;;;5.43;2.60;;;3.70;99.90;;;;;;4901071;29;20024;-87
2021/03/15 01:08:24;;;;;;;4.55;2.45;;;3.70;99.90;;;;;;4896521;29;20080;-88
2021/03/15 01:10:50;;;;;;;7.30;2.75;;;3.70;99.90;;;;;;4900897;29;20028;-88
2021/03/15 01:13:16;;;;;;;5.00;2.50;;;3.70;99.90;;;;;;4900924;29;20024;-87
2021/03/15 01:15:42;;;;;;;5.43;2.83;;;3.70;99.90;;;;;;4917793;29;20024;-87
2021/03/15 01:18:09;;;;;;;5.88;2.65;;;3.70;99.90;;;;;;4917918;29;20499;-87
2021/03/15 01:20:35;;;;;;;7.28;2.58;;;3.70;99.90;;;;;;4918104;29;20024;-88
2021/03/15 01:23:01;;;;;;;8.18;3.20;;;3.70;99.90;;;;;;4900724;29;20020;-88
2021/03/15 01:25:39;;;;;;;7.38;3.08;;;3.70;99.90;;;;;;4900764;29;20175;-88
2021/03/15 01:28:07;;;;;;;6.53;2.53;;;3.70;99.90;;;;;;4917726;29;20032;-88
2021/03/15 01:30:33;;;;;;;10.95;3.13;;;3.80;99.90;;;;;;4900685;29;20477;-88
2021/03/15 01:32:59;;;;;;;7.63;2.80;;;3.80;99.90;;;;;;4900899;29;20513;-88
2021/03/15 01:35:25;;;;;;;8.32;2.90;;;3.80;99.90;;;;;;4900582;29;20055;-88
2021/03/15 01:37:51;;;;;;;7.97;3.15;;;3.90;99.90;;;;;;4900496;29;20191;-88
2021/03/15 01:40:17;;;;;;;5.15;2.50;;;3.90;99.90;;;;;;4900588;29;20066;-87
2021/03/15 01:42:43;;;;;;;7.78;2.92;;;4.00;99.90;;;;;;4917516;29;20477;-88
2021/03/15 01:45:10;;;;;;;7.00;2.92;;;3.90;99.90;;;;;;4917501;29;20076;-88
2021/03/15 01:47:37;;;;;;;5.82;2.47;;;3.90;99.90;;;;;;4900353;29;20036;-87
2021/03/15 01:50:05;;;;;;;4.30;2.30;;;3.90;99.90;;;;;;4900373;29;20504;-87
2021/03/15 01:52:32;;;;;;;4.95;2.45;;;4.00;99.90;;;;;;4900407;29;20083;-88
2021/03/15 01:54:58;;;;;;;6.32;2.90;;;4.10;99.90;;;;;;4917230;29;20044;-87
2021/03/15 01:57:25;;;;;;;8.43;2.65;;;4.00;99.90;;;;;;4900229;29;20039;-88
2021/03/15 01:59:51;;;;;;;5.82;2.47;;;3.90;99.90;;;;;;4900358;29;20051;-88
2021/03/15 02:02:16;;;;;;;12.63;2.83;;;4.00;99.90;;;;;;4917294;29;20039;-88
2021/03/15 02:04:42;;;;;;;4.20;2.30;;;3.80;99.90;;;;;;4917331;29;20408;-88
2021/03/15 02:07:08;;;;;;;6.22;2.45;;;3.80;99.90;;;;;;4900277;29;20441;-88
2021/03/15 02:09:34;;;;;;;5.13;2.40;;;3.80;99.90;;;;;;4902859;29;20028;-88
2021/03/15 02:12:26;;;;;;;8.00;2.58;;;3.80;99.90;;;;;;4904205;29;20031;-87
2021/03/15 02:15:10;;;;;;;4.53;2.33;;;3.80;99.90;;;;;;4887939;29;20083;-88
2021/03/15 02:17:42;;;;;;;4.22;2.42;;;3.80;99.90;;;;;;4904071;29;20036;-87
2021/03/15 02:20:27;;;;;;;6.53;2.65;;;3.70;99.90;;;;;;4904031;29;20062;-88
2021/03/15 02:22:57;;;;;;;;;;;3.70;99.90;;;;;;4904435;29;20048;-87
2021/03/15 02:25:42;;;;;;;5.00;2.28;;;3.80;99.90;;;;;;4903953;29;19907;-88
2021/03/15 02:28:07;;;;;;;7.85;2.42;;;3.90;99.90;;;;;;4903829;29;20035;-88
2021/03/15 02:31:00;;;;;;;4.88;2.17;;;3.90;99.90;;;;;;4920862;29;20099;-87
2021/03/15 02:34:04;;;;;;;4.93;2.28;;;3.90;99.90;;;;;;4903726;29;20043;-88
2021/03/15 02:36:38;;;;;;;5.43;2.70;;;3.70;99.90;;;;;;4903816;29;20059;-87
2021/03/15 02:39:09;;;;;;;8.05;2.60;;;3.60;99.90;;;;;;4903828;29;20024;-87
2021/03/15 02:41:37;;;;;;;4.85;2.50;;;3.70;99.90;;;;;;4903697;29;20476;-87
2021/03/15 02:44:05;;;;;;;3.17;1.90;;;3.40;99.90;;;;;;4920610;29;20031;-88
2021/03/15 02:46:33;;;;;;;6.97;3.00;;;3.50;99.90;;;;;;4903603;29;20069;-88
2021/03/15 02:49:03;;;;;;;5.40;1.95;;;3.40;99.90;;;;;;4903595;29;20092;-88
2021/03/15 02:51:32;;;;;;;8.35;2.92;;;3.50;99.90;;;;;;4903471;29;20024;-88
2021/03/15 02:54:01;;;;;;;9.98;2.40;;;3.70;99.90;;;;;;4903265;29;20052;-87
2021/03/15 02:56:30;;;;;;;10.38;2.28;;;3.80;99.90;;;;;;4920251;29;20047;-88
2021/03/15 02:58:58;;;;;;;6.88;2.58;;;3.70;99.90;;;;;;4920372;29;20016;-87
2021/03/15 03:01:24;;;;;;;6.65;2.90;;;3.60;99.90;;;;;;4920462;29;20032;-87
2021/03/15 03:03:53;;;;;;;10.38;2.50;;;3.60;99.90;;;;;;4920188;29;20050;-87
2021/03/15 03:06:21;;;;;;;6.40;2.35;;;3.40;99.90;;;;;;4903225;29;20032;-87
2021/03/15 03:08:49;;;;;;;7.43;2.30;;;3.30;99.90;;;;;;4903221;29;20063;-87
2021/03/15 03:11:16;;;;;;;5.28;1.90;;;3.20;99.90;;;;;;4903343;29;20084;-87
2021/03/15 03:13:43;;;;;;;6.70;2.50;;;3.30;99.90;;;;;;4903062;29;20374;-86
2021/03/15 03:16:10;;;;;;;9.65;2.50;;;3.30;99.90;;;;;;4902959;29;20039;-87
2021/03/15 03:18:37;;;;;;;4.05;2.22;;;3.20;99.90;;;;;;4902901;29;20028;-87
2021/03/15 03:21:04;;;;;;;6.00;2.40;;;3.20;99.90;;;;;;4902790;29;20477;-87
2021/03/15 03:23:33;;;;;;;6.30;2.20;;;3.10;99.90;;;;;;4902874;29;20024;-87
2021/03/15 03:26:02;;;;;;;4.55;2.40;;;3.10;99.90;;;;;;4902847;29;20024;-87
2021/03/15 03:28:28;;;;;;;5.03;2.38;;;3.10;99.90;;;;;;4902732;29;20036;-86
2021/03/15 03:30:56;;;;;;;7.30;2.42;;;3.10;99.90;;;;;;4902796;29;20412;-86
2021/03/15 03:33:22;;;;;;;8.15;2.72;;;3.20;99.90;;;;;;4902651;29;20469;-88
2021/03/15 03:35:48;;;;;;;5.40;2.45;;;3.40;99.90;;;;;;4902879;29;20119;-87
2021/03/15 03:38:15;;;;;;;8.23;2.53;;;3.50;99.90;;;;;;4902650;29;20069;-87
2021/03/15 03:40:40;;;;;;;5.07;2.30;;;3.50;99.90;;;;;;4902622;29;20484;-86
2021/03/15 03:43:07;;;;;;;10.23;2.45;;;3.50;99.90;;;;;;4919895;29;20040;-87
2021/03/15 03:45:33;;;;;;;7.63;2.15;;;3.50;99.90;;;;;;4902553;29;20490;-87
2021/03/15 03:47:59;;;;;;;9.27;2.47;;;3.50;99.90;;;;;;4902416;29;20060;-87
2021/03/15 03:50:29;;;;;;;9.45;2.75;;;3.50;99.90;;;;;;4902414;29;20035;-87
2021/03/15 03:53:01;;;;;;;5.85;2.05;;;3.40;99.90;;;;;;4919642;29;20115;-86
2021/03/15 03:55:31;;;;;;;6.78;2.60;;;3.40;99.90;;;;;;4902375;29;20039;-86
2021/03/15 03:57:58;;;;;;;8.60;3.05;;;3.50;99.90;;;;;;4902143;29;20123;-86
2021/03/15 04:00:24;;;;;;;8.93;2.83;;;3.40;99.90;;;;;;4902219;29;20392;-86
2021/03/15 04:03:18;;;;;;;13.95;2.53;;;3.40;99.90;;;;;;4919169;29;20024;-85
2021/03/15 04:05:52;;;;;;;9.07;2.45;;;3.40;99.90;;;;;;4902257;29;20020;-86
2021/03/15 04:08:27;;;;;;;5.43;2.53;;;3.40;99.90;;;;;;4919142;29;20496;-86
2021/03/15 04:10:55;;;;;;;7.43;2.60;;;3.50;99.90;;;;;;4902374;29;20119;-86
2021/03/15 04:13:24;;;;;;;8.50;3.00;;;3.30;99.90;;;;;;4918993;29;20024;-86
2021/03/15 04:15:50;;;;;;;7.05;2.40;;;3.40;99.90;;;;;;4901866;29;20492;-86
2021/03/15 04:18:21;;;;;;;8.73;2.90;;;3.50;99.90;;;;;;4902128;29;20020;-86
2021/03/15 04:20:50;;;;;;;12.63;2.90;;;3.50;99.90;;;;;;4901918;29;20032;-86
2021/03/15 04:23:31;;;;;;;6.15;2.78;;;3.60;99.90;;;;;;4919106;29;20465;-86
2021/03/15 04:25:58;;;;;;;7.05;2.65;;;3.60;99.90;;;;;;4901874;29;20107;-86
2021/03/15 04:28:26;;;;;;;5.97;2.45;;;3.50;99.90;;;;;;4901757;29;20028;-86
2021/03/15 04:30:52;;;;;;;6.60;2.58;;;3.40;99.90;;;;;;4901320;29;20024;-86
2021/03/15 04:33:18;;;;;;;11.07;2.50;;;3.30;99.90;;;;;;4901398;29;20496;-87
2021/03/15 04:35:45;;;;;;;14.00;5.05;;;3.40;99.90;;;;;;4918575;29;20437;-86
2021/03/15 04:38:12;;;;;;;9.13;3.30;;;3.50;99.90;;;;;;4901250;29;20034;-86
2021/03/15 04:40:40;;;;;;;8.65;2.75;;;3.20;99.90;;;;;;4918482;29;20020;-86
2021/03/15 04:43:09;;;;;;;8.10;3.08;;;3.00;99.90;;;;;;4901615;29;20054;-86
2021/03/15 04:45:44;;;;;;;7.53;2.80;;;3.00;99.90;;;;;;4901421;29;20075;-86
2021/03/15 04:48:18;;;;;;;6.38;3.05;;;3.00;99.90;;;;;;4901466;29;20036;-85
2021/03/15 04:50:45;;;;;;;7.10;2.78;;;3.00;99.90;;;;;;4901596;29;20484;-86
2021/03/15 04:53:14;;;;;;;6.18;3.47;;;3.00;99.90;;;;;;4901122;29;20123;-86
2021/03/15 04:55:41;;;;;;;8.07;2.95;;;3.20;99.90;;;;;;4901252;29;20035;-86
2021/03/15 04:58:08;;;;;;;4.45;2.90;;;3.30;99.90;;;;;;4901098;29;20131;-86
2021/03/15 05:00:37;;;;;;;5.43;2.67;;;3.30;99.90;;;;;;4901041;29;20039;-86
2021/03/15 05:03:06;;;;;;;4.25;2.70;;;3.40;99.90;;;;;;4901071;29;20554;-85
2021/03/15 05:05:34;;;;;;;7.93;3.22;;;3.20;99.90;;;;;;4918040;29;20017;-85
2021/03/15 05:08:02;;;;;;;7.07;3.38;;;3.10;99.90;;;;;;4901217;29;20440;-85
2021/03/15 05:10:29;;;;;;;6.45;3.03;;;3.10;99.90;;;;;;4900960;29;20068;-85
2021/03/15 05:12:59;;;;;;;7.68;2.80;;;2.90;99.90;;;;;;4900901;29;20092;-84
2021/03/15 05:15:25;;;;;;;6.55;3.30;;;3.00;99.90;;;;;;4900961;29;20035;-85
2021/03/15 05:17:52;;;;;;;4.07;3.10;;;3.00;99.90;;;;;;4900762;29;20050;-86
2021/03/15 05:20:18;;;;;;;5.97;2.80;;;3.00;99.90;;;;;;4917805;29;20028;-85
2021/03/15 05:22:45;;;;;;;6.78;2.60;;;3.00;99.90;;;;;;4900737;29;20032;-86
2021/03/15 05:25:13;;;;;;;5.30;2.70;;;3.10;99.90;;;;;;4900704;29;20024;-86
2021/03/15 05:27:43;;;;;;;6.85;3.08;;;3.20;99.90;;;;;;4917663;29;20029;-85
2021/03/15 05:30:13;;;;;;;5.78;2.92;;;3.00;99.90;;;;;;4917631;29;20034;-85
2021/03/15 05:32:47;;;;;;;4.10;3.25;;;2.60;99.90;;;;;;4900143;29;20118;-85
2021/03/15 05:35:13;;;;;;;;;;;2.80;99.90;;;;;;4901082;29;20054;-85
2021/03/15 05:37:40;;;;;;;7.63;3.17;;;2.90;99.90;;;;;;4900577;29;19911;-86
2021/03/15 05:40:10;;;;;;;6.70;3.28;;;2.80;99.90;;;;;;4900538;29;20118;-85
2021/03/15 05:42:59;;;;;;;5.53;3.00;;;2.90;99.90;;;;;;4899995;29;20032;-87
2021/03/15 05:45:49;;;;;;;7.50;3.17;;;2.90;99.90;;;;;;4900535;29;20024;-85
2021/03/15 05:48:33;;;;;;;4.78;3.35;;;5.60;99.90;;;;;;4900543;29;20024;-87
2021/03/15 05:51:33;;;;;;;8.00;3.83;;;2.60;99.90;;;;;;4900430;29;20425;-86
2021/03/15 05:54:35;;;;;;;8.18;3.88;;;2.50;99.90;;;;;;4917211;29;20123;-86
2021/03/15 05:57:16;;;;;;;5.15;3.40;;;2.40;99.90;;;;;;4900280;29;20034;-86
2021/03/15 06:00:16;;;;;;;5.53;3.50;;;2.50;99.90;;;;;;4900328;29;20477;-86
2021/03/15 06:02:54;;;;;;;4.85;3.58;;;2.60;99.90;;;;;;4900181;29;20433;-86
2021/03/15 06:05:24;;;;;;;5.57;3.25;;;2.60;99.90;;;;;;4900399;29;20571;-86
2021/03/15 06:08:11;;;;;;;6.70;3.83;;;;;;;;;;4900261;29;20028;-86
2021/03/15 06:10:41;;;;;;;6.93;4.13;;;1.70;99.90;;;;;;4916975;29;20202;-85
2021/03/15 06:13:17;;;;;;;6.43;3.85;;;2.60;99.90;;;;;;4900184;29;20064;-84
2021/03/15 06:15:47;;;;;;;6.10;3.83;;;;;;;;;;4900094;29;20028;-84
2021/03/15 06:18:15;;;;;;;8.07;3.40;;;;;;;;;;4900051;29;20055;-84
2021/03/15 06:20:48;;;;;;;5.93;3.90;;;2.20;99.90;;;;;;4900129;29;20088;-85
2021/03/15 06:23:15;;;;;;;5.18;3.05;;;2.50;99.90;;;;;;4900143;29;20029;-84
2021/03/15 06:25:42;;;;;;;4.45;3.55;;;2.70;99.90;;;;;;4900107;29;20028;-85
2021/03/15 06:28:09;;;;;;;4.50;2.97;;;2.70;99.90;;;;;;4900070;29;20039;-84
2021/03/15 06:30:35;;;;;;;3.92;3.25;;;2.60;99.90;;;;;;4899999;29;20115;-85
2021/03/15 06:33:02;;;;;;;5.15;2.92;;;2.60;99.90;;;;;;4917003;29;20028;-85
2021/03/15 06:35:35;;;;;;;3.50;2.90;;;2.80;99.90;;;;;;4917237;29;20083;-85
2021/03/15 06:38:02;;;;;;;3.20;2.77;;;2.70;99.90;;;;;;4899957;29;20036;-85
2021/03/15 06:40:28;;;;;;;4.15;3.10;;;2.70;99.90;;;;;;4899991;29;20029;-86
2021/03/15 06:42:54;;;;;;;3.75;2.80;;;2.80;99.90;;;;;;4899956;29;20390;-85
2021/03/15 06:45:21;;;;;;;4.10;3.10;;;3.00;99.90;;;;;;4899797;29;20032;-85
2021/03/15 06:47:49;;;;;;;3.38;2.70;;;3.10;99.90;;;;;;4899867;29;20481;-86
2021/03/15 06:50:16;;;;;;;3.63;2.65;;;3.10;99.90;;;;;;4899927;29;20123;-85
2021/03/15 06:52:57;;;;;;;5.32;2.45;;;3.10;99.90;;;;;;4899847;29;20396;-86
2021/03/15 06:55:26;;;;;;;4.30;2.30;;;3.30;99.90;;;;;;4901938;29;20044;-86
2021/03/15 06:57:52;;;;;;;3.00;2.30;;;3.10;99.90;;;;;;4903357;29;20036;-85
2021/03/15 07:00:30;;;;;;;5.88;2.63;;;3.20;99.90;;;;;;4903309;29;20035;-85
2021/03/15 07:03:01;;;;;;;3.72;2.58;;;3.20;99.90;;;;;;4903307;29;20025;-85
2021/03/15 07:05:28;;;;;;;3.40;2.20;;;3.00;99.90;;;;;;4903272;29;20028;-86
2021/03/15 07:07:59;;;;;;;2.45;2.10;;;3.20;99.90;;;;;;4903251;29;20059;-87
2021/03/15 07:10:28;;;;;;;4.63;2.55;;;3.00;99.90;;;;;;4920126;29;20024;-86
2021/03/15 07:13:13;;;;;;;4.88;2.50;;;3.00;99.90;;;;;;4903048;29;20064;-86
2021/03/15 07:15:40;;;;;;;3.88;2.35;;;3.00;99.90;;;;;;4903094;29;20024;-86
2021/03/15 07:18:16;;;;;;;3.97;2.67;;;2.90;99.90;;;;;;4919930;29;20167;-86
2021/03/15 07:20:54;;;;;;;2.67;2.00;;;2.80;99.90;;;;;;4902948;29;20035;-85
2021/03/15 07:23:45;;;;;;;2.40;2.10;;;2.70;99.90;;;;;;4919912;29;20607;-84
2021/03/15 07:26:11;;;;;;;2.90;2.15;;;2.60;99.90;;;;;;4903107;29;20477;-84
2021/03/15 07:28:37;;;;;;;3.13;1.90;;;2.80;99.90;;;;;;4903322;29;20027;-84
2021/03/15 07:31:22;;;;;;;2.50;1.95;;;2.60;99.90;;;;;;4902665;29;20024;-84
2021/03/15 07:34:07;;;;;;;;;;;2.70;99.90;;;;;;4903973;29;20036;-84
2021/03/15 07:36:43;;;;;;;;;;;2.80;99.90;;;;;;4920084;29;19975;-84
2021/03/15 07:39:09;;;;;;;5.65;2.30;;;2.80;99.90;;;;;;4903162;29;19914;-85
2021/03/15 07:41:56;;;;;;;3.03;1.77;;;2.80;99.90;;;;;;4903342;29;20068;-86
2021/03/15 07:44:33;;;;;;;2.00;1.77;;;3.00;99.90;;;;;;4903496;29;20493;-86
2021/03/15 07:47:04;;;;;;;4.53;2.00;;;3.00;99.90;;;;;;4903294;29;20028;-86
2021/03/15 07:49:37;;;;;;;2.40;1.70;;;3.10;99.90;;;;;;4903623;29;20024;-86
2021/03/15 07:52:10;;;;;;;3.08;1.70;;;3.10;99.90;;;;;;4902577;29;20080;-86
2021/03/15 07:54:41;;;;;;;2.80;1.60;;;3.20;99.90;;;;;;4902576;29;20405;-87
2021/03/15 07:57:20;;;;;;;2.58;1.38;;;3.30;99.90;;;;;;4902463;29;20095;-86
2021/03/15 07:59:53;;;;;;;1.63;1.25;;;3.30;99.90;;;;;;4902626;29;20487;-87
2021/03/15 08:02:29;;;;;;;2.17;1.45;;;3.30;99.90;;;;;;4902797;29;20424;-87
2021/03/15 08:04:56;;;;;;;2.00;1.20;;;3.40;99.90;;;;;;4919432;29;20024;-87
2021/03/15 08:07:26;;;;;;;1.83;1.30;;;3.40;99.90;;;;;;4902159;29;20457;-86
2021/03/15 08:09:56;;;;;;;3.00;1.13;;;3.50;99.90;;;;;;4902460;29;20036;-87
2021/03/15 08:12:23;;;;;;;2.00;1.27;;;3.60;99.90;;;;;;4902911;29;20087;-86
2021/03/15 08:14:59;;;;;;;1.45;0.95;;;3.80;99.90;;;;;;4902078;29;20031;-85
2021/03/15 08:17:26;;;;;;;1.20;0.88;;;3.80;99.90;;;;;;4902466;29;20028;-87
2021/03/15 08:19:53;;;;;;;1.02;0.95;;;3.90;99.90;;;;;;4901966;29;20035;-87
2021/03/15 08:22:31;;;;;;;1.30;0.85;;;3.80;99.90;;;;;;4902107;29;20036;-87
2021/03/15 08:24:59;;;;;;;2.78;1.33;;;3.70;99.90;;;;;;4902185;29;20057;-88
2021/03/15 08:27:47;;;;;;;2.53;1.20;;;3.60;99.90;;;;;;4901709;29;20028;-86
2021/03/15 08:30:18;;;;;;;3.22;2.00;;;3.60;99.90;;;;;;4901822;29;20072;-87
2021/03/15 08:32:45;;;;;;;1.67;1.48;;;3.60;99.90;;;;;;4901609;29;20031;-86
2021/03/15 08:35:14;;;;;;;4.70;2.47;;;3.60;99.90;;;;;;4901569;29;20043;-86
2021/03/15 08:38:00;;;;;;;2.85;1.80;;;3.60;99.90;;;;;;4901498;29;20028;-86
2021/03/15 08:40:41;;;;;;;1.73;1.10;;;3.70;99.90;;;;;;4901596;29;20056;-86
2021/03/15 08:43:29;;;;;;;1.25;1.00;;;3.60;99.90;;;;;;4901487;29;20028;-86
2021/03/15 08:45:57;;;;;;;2.90;1.65;;;3.80;99.90;;;;;;4901547;29;20040;-86
2021/03/15 08:48:37;;;;;;;3.92;1.50;;;3.80;99.90;;;;;;4901308;29;20039;-86
2021/03/15 08:51:29;;;;;;;3.38;2.10;;;3.90;99.90;;;;;;4901362;29;20031;-86
2021/03/15 08:53:55;;;;;;;1.88;1.40;;;4.00;99.90;;;;;;4885153;29;20488;-87
2021/03/15 08:56:21;;;;;;;1.65;1.20;;;4.00;99.90;;;;;;4901184;29;20088;-87
2021/03/15 08:58:57;;;;;;;1.67;1.30;;;4.10;99.90;;;;;;4901209;29;20039;-87
2021/03/15 09:01:24;;;;;;;1.70;1.38;;;4.20;99.90;;;;;;4918035;29;20051;-87
2021/03/15 09:03:59;;;;;;;1.88;1.25;;;4.20;99.90;;;;;;4901128;29;20393;-87
2021/03/15 09:09:14;;;;;;;2.67;1.20;;;4.30;99.90;;;;;;4918013;29;20032;-86
2021/03/15 09:11:42;;;;;;;1.38;1.00;;;4.20;99.90;;;;;;4901878;29;20027;-87
2021/03/15 09:14:17;;;;;;;1.60;0.98;;;4.30;99.90;;;;;;4900964;29;20034;-87
2021/03/15 09:16:48;;;;;;;2.78;1.33;;;4.30;99.90;;;;;;4900847;29;20064;-87
2021/03/15 09:19:25;;;;;;;1.77;1.15;;;4.30;99.90;;;;;;4900800;29;20058;-87
2021/03/15 09:22:21;;;;;;;1.77;1.10;;;4.40;99.90;;;;;;4900830;29;20020;-86
2021/03/15 09:25:00;;;;;;;1.38;1.20;;;4.40;99.90;;;;;;4900816;29;20392;-86
2021/03/15 09:27:39;;;;;;;1.70;1.17;;;4.40;99.90;;;;;;4917538;29;20111;-86
2021/03/15 09:30:21;;;;;;;1.95;1.20;;;4.40;99.90;;;;;;4917880;29;20239;-86
2021/03/15 09:32:55;;;;;;;1.50;1.05;;;4.40;99.90;;;;;;4900610;29;20159;-86
2021/03/15 09:35:29;;;;;;;1.10;1.00;;;4.40;99.90;;;;;;4900741;29;20032;-87
2021/03/15 09:37:57;;;;;;;1.98;1.40;;;4.50;99.90;;;;;;4900623;29;20480;-86
2021/03/15 09:40:27;;;;;;;1.75;1.40;;;4.50;99.90;;;;;;4917553;29;20028;-87
2021/03/15 09:42:53;;;;;;;1.60;1.17;;;4.60;99.90;;;;;;4900660;29;20024;-87
2021/03/15 09:45:35;;;;;;;1.88;1.50;;;4.60;99.90;;;;;;4900831;29;20043;-87
2021/03/15 09:48:02;;;;;;;2.85;1.63;;;4.70;99.90;;;;;;4900596;29;20027;-86
2021/03/15 09:50:31;;;;;;;2.03;1.83;;;4.80;99.90;;;;;;4900356;29;20039;-87
2021/03/15 09:53:12;;;;;;;2.08;1.20;;;5.00;99.90;;;;;;4900265;29;20400;-87
2021/03/15 09:55:38;;;;;;;2.03;1.67;;;5.10;99.90;;;;;;4900485;29;20036;-87
2021/03/15 09:58:09;;;;;;;1.95;1.55;;;5.10;99.90;;;;;;4900352;29;20400;-87
2021/03/15 10:00:35;;;;;;;2.17;1.40;;;5.10;99.90;;;;;;4900749;29;20511;-87
2021/03/15 10:03:02;;;;;;;1.40;1.30;;;5.10;99.90;;;;;;4900390;29;20499;-86
2021/03/15 10:05:29;;;;;;;1.35;1.25;;;5.10;99.90;;;;;;4900270;29;20150;-87
2021/03/15 10:07:54;;;;;;;1.63;1.08;;;5.20;99.90;;;;;;4900271;29;20028;-86
2021/03/15 10:10:23;;;;;;;2.97;1.27;;;5.20;99.90;;;;;;4900298;29;20080;-86
2021/03/15 10:12:58;;;;;;;2.17;1.50;;;5.20;99.90;;;;;;4900533;29;20063;-86
2021/03/15 10:15:24;;;;;;;2.10;1.60;;;5.20;99.90;;;;;;4900339;29;20051;-87
2021/03/15 10:17:50;;;;;;;2.25;1.50;;;5.20;99.90;;;;;;4917156;29;20063;-88
2021/03/15 10:20:26;;;;;;;1.70;1.50;;;5.20;99.90;;;;;;4900155;29;20056;-87
2021/03/15 10:22:52;;;;;;;1.80;1.55;;;5.30;99.90;;;;;;4900223;29;20484;-87
2021/03/15 10:25:18;;;;;;;2.58;1.58;;;5.40;99.90;;;;;;4900987;29;20111;-88
2021/03/15 10:27:59;;;;;;;2.40;1.35;;;5.50;99.90;;;;;;4900167;29;20063;-86
2021/03/15 10:30:29;;;;;;;1.50;1.40;;;5.60;99.90;;;;;;4919505;29;20034;-87
2021/03/15 10:32:57;;;;;;;1.50;1.40;;;5.50;99.90;;;;;;4903852;29;20024;-88
2021/03/15 10:35:24;;;;;;;1.67;1.40;;;5.40;99.90;;;;;;4903772;29;20119;-86
2021/03/15 10:37:52;;;;;;;2.20;1.67;;;5.40;99.90;;;;;;4903778;29;20088;-86
2021/03/15 10:40:21;;;;;;;2.17;1.73;;;5.40;99.90;;;;;;4920739;29;20049;-86
2021/03/15 10:42:47;;;;;;;2.13;1.58;;;5.40;99.90;;;;;;4903662;29;20032;-86
2021/03/15 10:45:14;;;;;;;2.55;1.92;;;5.30;99.90;;;;;;4904137;29;20051;-85
2021/03/15 10:47:41;;;;;;;2.63;1.80;;;5.30;99.90;;;;;;4903540;29;20028;-85
2021/03/15 10:50:28;;;;;;;2.72;1.85;;;5.30;99.90;;;;;;4920549;29;20493;-86
2021/03/15 10:52:55;;;;;;;2.22;1.92;;;5.20;99.90;;;;;;4903415;29;20058;-86
2021/03/15 10:55:34;;;;;;;5.25;1.95;;;5.20;99.90;;;;;;4903075;29;20492;-85
2021/03/15 10:58:05;;;;;;;3.10;1.98;;;5.30;99.90;;;;;;4903337;29;20040;-86
2021/03/15 11:00:36;;;;;;;4.18;2.70;;;5.30;99.90;;;;;;4903370;29;20024;-86
2021/03/15 11:03:02;;;;;;;2.97;2.40;;;5.30;99.90;;;;;;4920265;29;20078;-86
2021/03/15 11:05:28;;;;;;;4.13;2.20;;;5.40;99.90;;;;;;4903260;29;20028;-86
2021/03/15 11:07:54;;;;;;;3.42;2.10;;;5.50;99.90;;;;;;4903189;29;20029;-86
2021/03/15 11:10:30;;;;;;;3.42;2.45;;;5.50;99.90;;;;;;4903162;29;20035;-86
2021/03/15 11:13:00;;;;;;;4.28;2.33;;;5.50;99.90;;;;;;4903724;29;20473;-86
2021/03/15 11:15:36;;;;;;;3.83;2.47;;;5.70;99.90;;;;;;4903006;29;20399;-86
2021/03/15 11:18:21;;;;;;;2.10;1.65;;;5.80;99.90;;;;;;4903013;29;20024;-86
2021/03/15 11:20:57;;;;;;;2.65;1.60;;;5.70;99.90;;;;;;4902958;29;20036;-86
2021/03/15 11:23:31;;;;;;;3.72;2.00;;;5.60;99.90;;;;;;4902817;29;20029;-87
2021/03/15 11:26:06;;;;;;;2.13;1.52;;;5.60;99.90;;;;;;4902856;29;20396;-86
2021/03/15 11:28:34;;;;;;;4.30;2.03;;;5.50;99.90;;;;;;4903127;29;20035;-86
2021/03/15 11:31:00;;;;;;;3.45;2.22;;;5.40;99.90;;;;;;4902606;29;20020;-86
2021/03/15 11:33:29;;;;;;;3.60;1.63;;;5.50;99.90;;;;;;4902679;29;20024;-87
2021/03/15 11:35:59;;;;;;;3.65;1.77;;;5.70;99.90;;;;;;4902637;29;20043;-86
2021/03/15 11:38:26;;;;;;;3.55;1.60;;;6.00;99.90;;;;;;4902687;29;20480;-86
2021/03/15 11:40:53;;;;;;;3.83;1.80;;;6.00;99.90;;;;;;4901764;29;20031;-87
2021/03/15 11:43:19;;;;;;;3.05;1.50;;;6.10;99.90;;;;;;4903286;29;20035;-87
2021/03/15 11:45:45;;;;;;;1.75;1.10;;;6.20;99.90;;;;;;4902644;29;20028;-87
2021/03/15 11:48:11;;;;;;;3.90;1.48;;;6.40;99.90;;;;;;4902438;29;20083;-88
2021/03/15 11:50:38;;;;;;;2.47;1.40;;;6.60;99.90;;;;;;4902715;29;20059;-89
2021/03/15 11:53:05;;;;;;;2.00;1.50;;;;;;;;;;4902658;29;20392;-89
2021/03/15 11:55:32;;;;;;;1.48;1.10;;;7.10;99.90;;;;;;4902504;29;20044;-89
2021/03/15 11:57:57;;;;;;;4.03;1.15;;;7.20;99.90;;;;;;4902447;29;20047;-88
2021/03/15 12:00:24;;;;;;;1.45;1.33;;;7.20;99.90;;;;;;4902619;29;20480;-90
2021/03/15 12:02:51;;;;;;;2.00;1.30;;;7.00;99.90;;;;;;4902505;29;20080;-88
2021/03/15 12:05:18;;;;;;;2.75;1.50;;;6.80;99.90;;;;;;4902424;29;20028;-89
2021/03/15 12:07:45;;;;;;;2.28;1.60;;;6.60;99.90;;;;;;4902921;29;20032;-88
2021/03/15 12:10:12;;;;;;;2.25;1.30;;;6.80;99.90;;;;;;4902701;29;20492;-88
2021/03/15 12:12:39;;;;;;;1.92;1.40;;;6.90;99.90;;;;;;4919619;29;20029;-89
2021/03/15 12:15:10;;;;;;;1.40;1.10;;;6.60;99.90;;;;;;4902504;29;20369;-88
2021/03/15 12:17:36;;;;;;;1.80;1.50;;;6.30;99.90;;;;;;4902380;29;20524;-88
2021/03/15 12:20:08;;;;;;;3.00;1.88;;;6.10;99.90;;;;;;4919075;29;20021;-88
2021/03/15 12:22:35;;;;;;;3.08;1.80;;;5.90;99.90;;;;;;4902189;29;20031;-89
2021/03/15 12:25:02;;;;;;;3.20;2.10;;;5.80;99.90;;;;;;4903383;29;20076;-88
2021/03/15 12:27:28;;;;;;;2.00;1.40;;;5.80;99.90;;;;;;4902467;29;20032;-89
2021/03/15 12:29:53;;;;;;;2.80;1.70;;;5.80;99.90;;;;;;4902401;29;20051;-89
2021/03/15 12:32:19;;;;;;;1.60;1.50;;;6.00;99.90;;;;;;4902299;29;20484;-88
2021/03/15 12:34:45;;;;;;;2.78;2.20;;;6.10;99.90;;;;;;4901880;29;20036;-89
2021/03/15 12:37:10;;;;;;;2.88;1.70;;;6.10;99.90;;;;;;4901603;29;20507;-89
2021/03/15 12:39:37;;;;;;;3.70;2.05;;;6.30;99.90;;;;;;4919250;29;20092;-88
2021/03/15 12:42:03;;;;;;;2.35;1.80;;;6.40;99.90;;;;;;4901951;29;20528;-88
2021/03/15 12:44:29;;;;;;;11.13;2.40;;;6.60;99.90;;;;;;4902200;29;20120;-89
2021/03/15 12:46:55;;;;;;;4.00;2.15;;;6.70;99.90;;;;;;4901573;29;20115;-89
2021/03/15 12:49:21;;;;;;;2.78;1.98;;;6.70;99.90;;;;;;4901795;29;20056;-88
2021/03/15 12:51:48;;;;;;;4.05;2.55;;;6.70;99.90;;;;;;4901573;29;20416;-90
2021/03/15 12:54:14;;;;;;;3.95;2.67;;;6.90;99.90;;;;;;4901809;29;20047;-90
2021/03/15 12:56:40;;;;;;;5.60;3.25;;;7.00;99.90;;;;;;4901897;29;20040;-89
2021/03/15 12:59:06;;;;;;;3.83;2.47;;;7.20;99.90;;;;;;4901875;29;20516;-89
2021/03/15 13:01:31;;;;;;;4.82;2.70;;;7.00;99.90;;;;;;4901436;29;20020;-89
2021/03/15 13:03:57;;;;;;;3.22;2.42;;;6.80;99.90;;;;;;4918334;29;20108;-89
2021/03/15 13:06:23;;;;;;;2.53;1.90;;;6.60;99.90;;;;;;4901639;29;20024;-90
2021/03/15 13:08:50;;;;;;;3.45;2.30;;;6.10;99.90;;;;;;4918543;29;20439;-88
2021/03/15 13:11:17;;;;;;;3.58;2.33;;;5.80;99.90;;;;;;4901892;29;20062;-89
2021/03/15 13:13:43;;;;;;;3.20;2.33;;;5.60;99.90;;;;;;4901322;29;20453;-88
2021/03/15 13:16:09;;;;;;;4.88;2.50;;;5.60;99.90;;;;;;4918112;29;20056;-88
2021/03/15 13:18:35;;;;;;;4.53;2.25;;;5.80;99.90;;;;;;4901230;29;20063;-89